Time;durP1;ratioP1;P1;durP2;ratioP2;P2;SDS_P1;SDS_P2;PMS_P1;PMS_P2;Temp;Humidity;BMP_temperature;BMP_pressure;BME280_temperature;BME280_humidity;BME280_pressure;Samples;Min_cycle;Max_cycle;Signal;HPM_P1;HPM_P2
2023/04/11 00:02:38;;;;;;;7.20;5.23;;;;;;;;;;5016000;28;20185;-87
2023/04/11 00:05:42;;;;;;;6.77;5.17;;;;;;;;;;5027333;28;20181;-88
2023/04/11 00:08:46;;;;;;;9.43;5.93;;;;;;;;;;5037995;28;20169;-88
2023/04/11 00:11:51;;;;;;;6.00;4.73;;;;;;;;;;5027135;28;20189;-88
2023/04/11 00:14:55;;;;;;;6.70;4.53;;;;;;;;;;5027086;28;20185;-88
2023/04/11 00:17:59;;;;;;;7.17;4.97;;;;;;;;;;5026602;28;20216;-88
2023/04/11 00:21:04;;;;;;;5.87;4.50;;;;;;;;;;5054464;28;20185;-87
2023/04/11 00:24:08;;;;;;;5.33;4.40;;;;;;;;;;5045711;28;20185;-88
2023/04/11 00:27:12;;;;;;;6.70;4.93;;;;;;;;;;5027818;28;20232;-88
2023/04/11 00:30:17;;;;;;;6.13;4.40;;;;;;;;;;5032640;28;20633;-88
2023/04/11 00:33:21;;;;;;;6.43;4.53;;;;;;;;;;5026922;28;20193;-88
2023/04/11 00:36:25;;;;;;;5.00;4.30;;;;;;;;;;5059327;28;20181;-87
2023/04/11 00:39:32;;;;;;;5.20;4.10;;;;;;;;;;5034839;28;20193;-88
2023/04/11 00:42:37;;;;;;;5.90;4.20;;;;;;;;;;5026323;28;20189;-88
2023/04/11 00:45:41;;;;;;;4.90;3.90;;;;;;;;;;5038546;28;20173;-88
2023/04/11 00:48:46;;;;;;;4.67;3.73;;;;;;;;;;5026354;28;20542;-88
2023/04/11 00:51:50;;;;;;;5.47;3.73;;;;;;;;;;5037193;28;20200;-88
2023/04/11 00:54:54;;;;;;;5.40;3.83;;;;;;;;;;5013814;28;20647;-88
2023/04/11 00:58:00;;;;;;;3.93;3.53;;;;;;;;;;5013896;28;20216;-88
2023/04/11 01:01:08;;;;;;;4.93;3.67;;;;;;;;;;5036566;28;20536;-88
2023/04/11 01:04:12;;;;;;;4.63;3.83;;;;;;;;;;5036836;28;20197;-88
2023/04/11 01:07:18;;;;;;;6.17;4.80;;;;;;;;;;5025118;28;20228;-88
2023/04/11 01:10:27;;;;;;;5.63;4.07;;;;;;;;;;5048060;28;20201;-88
2023/04/11 01:13:33;;;;;;;6.80;4.27;;;;;;;;;;5037887;28;20180;-88
2023/04/11 01:16:37;;;;;;;5.13;4.00;;;;;;;;;;5026101;28;20220;-88
2023/04/11 01:19:42;;;;;;;5.37;3.83;;;;;;;;;;5037009;28;20184;-88
2023/04/11 01:22:50;;;;;;;5.43;3.40;;;;;;;;;;5014147;28;20185;-88
2023/04/11 01:25:54;;;;;;;3.93;3.43;;;;;;;;;;5036087;28;20181;-88
2023/04/11 01:28:59;;;;;;;4.60;3.63;;;;;;;;;;5036183;28;20173;-88
2023/04/11 01:32:03;;;;;;;5.93;2.90;;;;;;;;;;5036964;28;20185;-88
2023/04/11 01:35:09;;;;;;;3.83;3.17;;;;;;;;;;5036405;28;20192;-88
2023/04/11 01:38:13;;;;;;;3.80;3.00;;;;;;;;;;5024926;28;20220;-88
2023/04/11 01:41:18;;;;;;;3.63;3.00;;;;;;;;;;5024640;28;20197;-88
2023/04/11 01:44:24;;;;;;;4.17;2.97;;;;;;;;;;5024453;28;20185;-88
2023/04/11 01:47:28;;;;;;;4.07;2.67;;;;;;;;;;5011670;28;20216;-85
2023/04/11 01:50:32;;;;;;;3.60;2.80;;;;;;;;;;5011976;28;20192;-85
2023/04/11 01:53:36;;;;;;;3.70;2.97;;;;;;;;;;5011961;28;20176;-85
2023/04/11 01:56:40;;;;;;;3.53;2.87;;;;;;;;;;5011043;28;20217;-85
2023/04/11 01:59:44;;;;;;;3.03;2.57;;;;;;;;;;5011759;28;20185;-85
2023/04/11 02:02:49;;;;;;;3.17;2.50;;;;;;;;;;5022887;28;20181;-85
2023/04/11 02:05:53;;;;;;;4.37;2.67;;;;;;;;;;5022814;28;20189;-85
2023/04/11 02:08:57;;;;;;;3.00;2.63;;;;;;;;;;5022563;28;20212;-85
2023/04/11 02:12:01;;;;;;;3.00;2.60;;;;;;;;;;5011528;28;20197;-88
2023/04/11 02:15:06;;;;;;;3.97;2.90;;;;;;;;;;5033599;28;20184;-88
2023/04/11 02:18:10;;;;;;;5.23;3.20;;;;;;;;;;5022436;28;20216;-87
2023/04/11 02:21:14;;;;;;;4.67;3.73;;;;;;;;;;5034077;28;20188;-88
2023/04/11 02:24:18;;;;;;;3.90;3.50;;;;;;;;;;5011143;28;20185;-88
2023/04/11 02:27:22;;;;;;;6.00;3.63;;;;;;;;;;5010908;28;20224;-88
2023/04/11 02:30:26;;;;;;;7.80;3.90;;;;;;;;;;5033518;28;20196;-88
2023/04/11 02:33:31;;;;;;;5.00;4.23;;;;;;;;;;5010822;28;20204;-87
2023/04/11 02:36:35;;;;;;;6.43;4.70;;;;;;;;;;5010750;28;20228;-88
2023/04/11 02:39:39;;;;;;;4.67;4.00;;;;;;;;;;5034068;28;20181;-88
2023/04/11 02:42:43;;;;;;;4.37;3.50;;;;;;;;;;5010928;28;20189;-89
2023/04/11 02:45:48;;;;;;;4.50;3.40;;;;;;;;;;5022626;28;20200;-88
2023/04/11 02:48:52;;;;;;;3.20;2.90;;;;;;;;;;5033541;28;20208;-89
2023/04/11 02:51:57;;;;;;;4.00;2.70;;;;;;;;;;5022193;28;20213;-89
2023/04/11 02:55:01;;;;;;;3.43;2.97;;;;;;;;;;5022329;28;20184;-89
2023/04/11 02:58:06;;;;;;;4.27;2.97;;;;;;;;;;5021796;28;20220;-89
2023/04/11 03:01:10;;;;;;;3.53;2.87;;;;;;;;;;5033372;28;20645;-89
2023/04/11 03:04:15;;;;;;;3.37;2.93;;;;;;;;;;5033666;28;20650;-89
2023/04/11 03:07:45;;;;;;;4.63;3.13;;;;;;;;;;5032962;28;20228;-89
2023/04/11 03:10:50;;;;;;;4.60;3.17;;;;;;;;;;5033509;28;20185;-89
2023/04/11 03:13:54;;;;;;;4.17;2.80;;;;;;;;;;5010408;28;20185;-88
2023/04/11 03:16:58;;;;;;;4.27;3.20;;;;;;;;;;5021378;28;20224;-88
2023/04/11 03:20:06;;;;;;;4.23;3.00;;;;;;;;;;5011013;28;20185;-88
2023/04/11 03:23:11;;;;;;;3.80;3.07;;;;;;;;;;5010373;28;20196;-89
2023/04/11 03:26:17;;;;;;;5.93;3.10;;;;;;;;;;5021708;28;20209;-88
2023/04/11 03:29:21;;;;;;;4.53;2.93;;;;;;;;;;5022236;28;20216;-87
2023/04/11 03:32:43;;;;;;;5.07;4.53;;;;;;;;;;5012993;28;20193;-87
2023/04/11 03:35:47;;;;;;;6.70;4.40;;;;;;;;;;5021449;28;20185;-89
2023/04/11 03:38:52;;;;;;;7.83;4.70;;;;;;;;;;5021769;28;20173;-87
2023/04/11 03:41:56;;;;;;;5.03;3.83;;;;;;;;;;5010518;28;20180;-87
2023/04/11 03:45:01;;;;;;;5.73;3.60;;;;;;;;;;5017409;28;20189;-87
2023/04/11 03:48:07;;;;;;;4.77;3.47;;;;;;;;;;5019364;28;20570;-87
2023/04/11 03:51:25;;;;;;;4.73;3.17;;;;;;;;;;5021528;28;20189;-87
2023/04/11 03:54:38;;;;;;;3.87;3.40;;;;;;;;;;5021599;28;20189;-87
2023/04/11 03:57:45;;;;;;;4.10;2.90;;;;;;;;;;5020868;28;20217;-86
2023/04/11 04:00:50;;;;;;;3.63;2.90;;;;;;;;;;5010467;28;20515;-86
2023/04/11 04:03:55;;;;;;;4.37;2.63;;;;;;;;;;5010111;28;20177;-86
2023/04/11 04:07:00;;;;;;;3.60;2.70;;;;;;;;;;5009805;28;20217;-86
2023/04/11 04:10:11;;;;;;;5.93;3.23;;;;;;;;;;5021180;28;20170;-86
2023/04/11 04:13:17;;;;;;;3.27;2.60;;;;;;;;;;5021145;28;20189;-86
2023/04/11 04:16:47;;;;;;;2.93;2.43;;;;;;;;;;5024450;28;20221;-86
2023/04/11 04:19:53;;;;;;;3.13;2.57;;;;;;;;;;5012575;28;20181;-86
2023/04/11 04:22:59;;;;;;;2.90;2.50;;;;;;;;;;5024823;28;20642;-86
2023/04/11 04:26:15;;;;;;;3.80;2.40;;;;;;;;;;5027187;28;20189;-85
2023/04/11 04:29:36;;;;;;;2.50;2.30;;;;;;;;;;5017007;28;20212;-85
2023/04/11 04:32:42;;;;;;;3.87;2.80;;;;;;;;;;5027355;28;20189;-84
2023/04/11 04:35:56;;;;;;;3.23;2.57;;;;;;;;;;5027245;28;20511;-84
2023/04/11 04:39:03;;;;;;;3.20;2.70;;;;;;;;;;5015601;28;20515;-84
2023/04/11 04:42:20;;;;;;;3.97;2.53;;;;;;;;;;5016519;28;20189;-86
2023/04/11 04:45:25;;;;;;;3.83;2.80;;;;;;;;;;5015371;28;20189;-84
2023/04/11 04:48:29;;;;;;;3.40;3.00;;;;;;;;;;5038086;28;20569;-84
2023/04/11 04:51:35;;;;;;;3.67;3.00;;;;;;;;;;5014202;28;20522;-84
2023/04/11 04:54:39;;;;;;;3.17;2.87;;;;;;;;;;5026672;28;20521;-84
2023/04/11 04:57:43;;;;;;;3.73;3.30;;;;;;;;;;5016756;28;20221;-84
2023/04/11 05:00:54;;;;;;;4.17;3.40;;;;;;;;;;5026660;28;20185;-84
2023/04/11 05:04:10;;;;;;;4.97;3.13;;;;;;;;;;5025750;28;20185;-84
2023/04/11 05:07:28;;;;;;;3.57;3.00;;;;;;;;;;5014864;28;20224;-84
2023/04/11 05:10:38;;;;;;;3.07;2.77;;;;;;;;;;5024860;28;20177;-84
2023/04/11 05:14:42;;;;;;;4.03;3.17;;;;;;;;;;5014157;28;20177;-84
2023/04/11 05:17:49;;;;;;;5.13;2.90;;;;;;;;;;5012653;28;20209;-87
2023/04/11 05:21:21;;;;;;;4.57;3.23;;;;;;;;;;5013268;28;20177;-86
2023/04/11 05:24:34;;;;;;;3.43;2.97;;;;;;;;;;5024415;28;20185;-86
2023/04/11 05:27:39;;;;;;;3.10;2.63;;;;;;;;;;5001006;28;20228;-86
2023/04/11 05:30:49;;;;;;;3.33;2.60;;;;;;;;;;5022975;28;20511;-85
2023/04/11 05:33:55;;;;;;;3.23;2.50;;;;;;;;;;5023558;28;20193;-86
2023/04/11 05:37:02;;;;;;;4.23;2.80;;;;;;;;;;5023459;28;20217;-86
2023/04/11 05:40:10;;;;;;;6.80;3.00;;;;;;;;;;5023621;28;20181;-84
2023/04/11 05:43:14;;;;;;;27.47;17.03;;;;;;;;;;5012427;28;20204;-83
2023/04/11 05:46:18;;;;;;;6.90;4.83;;;;;;;;;;5046761;28;20195;-84
2023/04/11 05:49:22;;;;;;;3.97;3.00;;;;;;;;;;5022978;28;20201;-84
2023/04/11 05:52:26;;;;;;;17.50;11.30;;;;;;;;;;5012216;28;20189;-84
2023/04/11 05:56:00;;;;;;;3.47;3.03;;;;;;;;;;5023569;28;20187;-87
2023/04/11 06:05:32;;;;;;;4.57;3.60;;;;;;;;;;4974592;28;20533;-88
2023/04/11 06:10:27;;;;;;;5.97;3.20;;;;;;;;;;4932723;29;20239;-88
2023/04/11 06:13:38;;;;;;;4.00;3.50;;;;;;;;;;4981931;28;20651;-86
2023/04/11 06:16:57;;;;;;;3.87;3.33;;;;;;;;;;4971017;28;20222;-87
2023/04/11 06:20:29;;;;;;;3.80;2.83;;;;;;;;;;4916409;29;20205;-87
2023/04/11 06:27:22;;;;;;;4.43;3.80;;;;;;;;;;4915866;29;20232;-86
2023/04/11 06:30:31;;;;;;;3.57;2.70;;;;;;;;;;4916552;29;20197;-89
2023/04/11 06:33:35;;;;;;;4.57;3.10;;;;;;;;;;4905765;29;20209;-89
2023/04/11 06:36:41;;;;;;;4.40;3.40;;;;;;;;;;4920486;29;20228;-88
2023/04/11 06:39:46;;;;;;;6.23;3.03;;;;;;;;;;4921601;29;20195;-88
2023/04/11 06:42:50;;;;;;;2.67;2.20;;;;;;;;;;4921380;29;20179;-89
2023/04/11 06:45:54;;;;;;;4.10;2.70;;;;;;;;;;4921576;29;20703;-88
2023/04/11 06:48:59;;;;;;;6.27;5.70;;;;;;;;;;4920888;29;20231;-87
2023/04/11 06:52:03;;;;;;;5.10;4.57;;;;;;;;;;4982594;28;20209;-87
2023/04/11 06:55:08;;;;;;;5.37;4.00;;;;;;;;;;4981369;28;20201;-87
2023/04/11 06:58:13;;;;;;;3.03;2.17;;;;;;;;;;4989910;28;20217;-88
2023/04/11 07:01:19;;;;;;;3.80;1.60;;;;;;;;;;4978819;28;20677;-88
2023/04/11 07:04:23;;;;;;;3.13;1.60;;;;;;;;;;4983035;28;20201;-87
2023/04/11 07:07:27;;;;;;;1.97;1.33;;;;;;;;;;5032916;28;20697;-88
2023/04/11 07:10:31;;;;;;;1.90;1.43;;;;;;;;;;5010234;28;20216;-87
2023/04/11 07:13:35;;;;;;;1.37;1.27;;;;;;;;;;5010525;28;20524;-87
2023/04/11 07:16:39;;;;;;;2.40;1.50;;;;;;;;;;5021582;28;20225;-87
2023/04/11 07:19:43;;;;;;;1.00;0.90;;;;;;;;;;5009948;28;20538;-86
2023/04/11 07:22:47;;;;;;;2.90;1.50;;;;;;;;;;5021617;28;20201;-87
2023/04/11 07:25:53;;;;;;;11.30;7.83;;;;;;;;;;5021425;28;20205;-86
2023/04/11 07:28:58;;;;;;;2.33;1.77;;;;;;;;;;5032353;28;20235;-86
2023/04/11 07:32:02;;;;;;;2.13;1.80;;;;;;;;;;5021233;28;20180;-86
2023/04/11 07:35:06;;;;;;;1.50;1.40;;;;;;;;;;5021344;28;20180;-87
2023/04/11 07:38:11;;;;;;;3.13;1.67;;;;;;;;;;5009850;28;20224;-86
2023/04/11 07:41:15;;;;;;;1.87;1.63;;;;;;;;;;5010489;28;20181;-87
2023/04/11 07:44:20;;;;;;;1.87;1.67;;;;;;;;;;5013667;28;20204;-87
2023/04/11 07:47:24;;;;;;;1.37;1.10;;;;;;;;;;5036107;28;20221;-87
2023/04/11 07:50:28;;;;;;;2.03;1.00;;;;;;;;;;5025213;28;20228;-86
2023/04/11 07:53:32;;;;;;;2.30;1.43;;;;;;;;;;5012756;28;20196;-87
2023/04/11 07:56:36;;;;;;;1.57;1.40;;;;;;;;;;5025282;28;20220;-90
2023/04/11 07:59:41;;;;;;;1.13;0.90;;;;;;;;;;5025513;28;20217;-87
2023/04/11 08:02:45;;;;;;;1.50;0.70;;;;;;;;;;5013744;28;20177;-87
2023/04/11 08:05:51;;;;;;;1.63;0.80;;;;;;;;;;5013529;28;20196;-88
2023/04/11 08:08:55;;;;;;;1.07;0.70;;;;;;;;;;5025207;28;20177;-87
2023/04/11 08:12:50;;;;;;;4.50;1.97;;;;;;;;;;5024952;28;20185;-89
2023/04/11 08:16:00;;;;;;;4.00;1.27;;;;;;;;;;5014118;28;20630;-89
2023/04/11 08:19:09;;;;;;;0.97;0.60;;;;;;;;;;5013604;28;20566;-88
2023/04/11 08:22:13;;;;;;;5.63;2.30;;;;;;;;;;5013569;28;20185;-88
2023/04/11 08:25:23;;;;;;;0.60;0.60;;;;;;;;;;5024997;28;20184;-89
2023/04/11 08:28:28;;;;;;;7.60;3.00;;;;;;;;;;5024539;28;20712;-88
2023/04/11 08:31:32;;;;;;;4.43;1.80;;;;;;;;;;5013734;28;20205;-88
2023/04/11 08:34:36;;;;;;;5.73;2.73;;;;;;;;;;5024884;28;20185;-88
2023/04/11 08:37:40;;;;;;;4.30;2.20;;;;;;;;;;5024528;28;20224;-86
2023/04/11 08:40:45;;;;;;;2.23;0.70;;;;;;;;;;5024582;28;20209;-87
2023/04/11 08:43:49;;;;;;;6.90;3.20;;;;;;;;;;5013326;28;20189;-88
2023/04/11 08:46:53;;;;;;;5.93;2.97;;;;;;;;;;5024701;28;20562;-88
2023/04/11 08:49:57;;;;;;;5.73;2.10;;;;;;;;;;5024624;28;20173;-88
2023/04/11 08:53:02;;;;;;;7.63;2.80;;;;;;;;;;5013640;28;20181;-88
2023/04/11 08:56:14;;;;;;;1.63;1.10;;;;;;;;;;5012843;28;20197;-88
2023/04/11 08:59:18;;;;;;;4.50;1.23;;;;;;;;;;5012733;28;20550;-88
2023/04/11 09:02:22;;;;;;;3.63;1.83;;;;;;;;;;5024624;28;20530;-87
2023/04/11 09:05:31;;;;;;;1.30;0.70;;;;;;;;;;5012799;28;20180;-87
2023/04/11 09:08:38;;;;;;;1.00;0.77;;;;;;;;;;5012755;28;20212;-86
2023/04/11 09:11:53;;;;;;;1.83;1.00;;;;;;;;;;5014357;28;20197;-88
2023/04/11 09:15:31;;;;;;;4.23;1.57;;;;;;;;;;5013135;28;20192;-84
2023/04/11 09:18:39;;;;;;;8.13;2.93;;;;;;;;;;4991167;23;20242;-74
2023/04/11 09:21:53;;;;;;;8.90;1.97;;;;;;;;;;4975756;28;20218;-73
2023/04/11 09:25:02;;;;;;;1.47;0.63;;;;;;;;;;4995950;28;20195;-74
2023/04/11 10:09:42;;;;;;;3.50;0.97;;;;;;;;;;5035134;23;20237;-74
2023/04/11 10:12:47;;;;;;;6.20;3.07;;;;;;;;;;5002337;28;20645;-74
2023/04/11 10:16:12;;;;;;;2.10;1.07;;;;;;;;;;5002584;28;20186;-74
2023/04/11 10:19:16;;;;;;;2.50;1.07;;;;;;;;;;5014212;28;20638;-74
2023/04/11 10:22:39;;;;;;;2.17;0.90;;;;;;;;;;5002060;28;20228;-73
2023/04/11 10:26:10;;;;;;;2.67;0.90;;;;;;;;;;5014471;28;20622;-74
2023/04/11 10:29:31;;;;;;;11.10;7.57;;;;;;;;;;5001926;28;20646;-74
2023/04/11 10:32:36;;;;;;;10.90;7.07;;;;;;;;;;4991058;28;20225;-75
2023/04/11 10:36:04;;;;;;;4.43;2.47;;;;;;;;;;5013950;28;20208;-74
2023/04/11 10:39:08;;;;;;;11.73;9.30;;;;;;;;;;5019660;28;20186;-74
2023/04/11 10:42:39;;;;;;;5.33;2.70;;;;;;;;;;5014021;28;20221;-74
2023/04/11 10:45:44;;;;;;;2.70;1.10;;;;;;;;;;5014387;28;20185;-74
2023/04/11 10:48:56;;;;;;;3.77;1.37;;;;;;;;;;5013962;28;20519;-74
2023/04/11 10:52:16;;;;;;;2.23;1.10;;;;;;;;;;5002134;28;20213;-74
2023/04/11 10:55:21;;;;;;;4.73;2.30;;;;;;;;;;5014000;28;20190;-74
2023/04/11 10:58:34;;;;;;;5.37;2.20;;;;;;;;;;5013612;28;20197;-74
2023/04/11 11:01:39;;;;;;;3.80;1.07;;;;;;;;;;5013729;28;20241;-74
2023/04/11 11:04:43;;;;;;;3.80;1.10;;;;;;;;;;5013550;28;20189;-74
2023/04/11 11:07:48;;;;;;;5.03;1.37;;;;;;;;;;5013624;28;20185;-74
2023/04/11 11:10:52;;;;;;;1.60;1.20;;;;;;;;;;5013313;28;20213;-74
2023/04/11 11:13:56;;;;;;;3.47;1.10;;;;;;;;;;5001570;28;20185;-74
2023/04/11 11:17:01;;;;;;;4.13;1.40;;;;;;;;;;5013671;28;20181;-74
2023/04/11 11:20:08;;;;;;;3.23;1.70;;;;;;;;;;5001752;28;20658;-74
2023/04/11 11:23:13;;;;;;;3.13;1.27;;;;;;;;;;5001270;28;20190;-75
2023/04/11 11:26:17;;;;;;;4.47;1.33;;;;;;;;;;5001224;28;20665;-74
2023/04/11 11:29:36;;;;;;;2.73;1.33;;;;;;;;;;5012345;28;20205;-74
2023/04/11 11:32:40;;;;;;;3.50;1.17;;;;;;;;;;5001029;28;20225;-74
2023/04/11 11:36:03;;;;;;;3.37;0.87;;;;;;;;;;5013512;28;20527;-73
2023/04/11 11:39:09;;;;;;;4.03;1.03;;;;;;;;;;5013473;28;20186;-74
2023/04/11 11:42:13;;;;;;;2.50;1.37;;;;;;;;;;5001006;28;20209;-73
2023/04/11 11:45:20;;;;;;;5.13;1.20;;;;;;;;;;5013106;28;20197;-74
2023/04/11 11:48:24;;;;;;;2.33;1.17;;;;;;;;;;5013258;28;20523;-74
2023/04/11 11:51:39;;;;;;;4.07;1.10;;;;;;;;;;5001417;28;20586;-74
2023/04/11 11:54:45;;;;;;;2.27;1.00;;;;;;;;;;4989768;28;20205;-74
2023/04/11 11:57:49;;;;;;;4.80;0.93;;;;;;;;;;5013242;28;20190;-74
2023/04/11 12:00:54;;;;;;;3.47;1.07;;;;;;;;;;5012849;28;20228;-74
2023/04/11 12:03:59;;;;;;;3.93;1.00;;;;;;;;;;5012960;28;20193;-74
2023/04/11 12:07:08;;;;;;;1.97;0.93;;;;;;;;;;5012395;28;20190;-74
2023/04/11 12:10:16;;;;;;;5.67;1.33;;;;;;;;;;5013202;28;20178;-74
2023/04/11 12:13:22;;;;;;;1.77;0.90;;;;;;;;;;5013095;28;20645;-74
2023/04/11 12:16:26;;;;;;;3.33;1.00;;;;;;;;;;5013215;28;20182;-74
2023/04/11 12:19:30;;;;;;;4.03;1.00;;;;;;;;;;5000800;28;20209;-74
2023/04/11 12:22:34;;;;;;;4.43;1.10;;;;;;;;;;5012729;28;20209;-74
2023/04/11 12:25:39;;;;;;;2.87;0.90;;;;;;;;;;5013046;28;20186;-74
2023/04/11 12:28:43;;;;;;;2.30;0.97;;;;;;;;;;5012961;28;20181;-74
2023/04/11 12:31:48;;;;;;;6.10;1.03;;;;;;;;;;5012177;28;20689;-73
2023/04/11 12:34:53;;;;;;;3.47;1.10;;;;;;;;;;5000703;28;20182;-73
2023/04/11 12:37:57;;;;;;;4.37;1.10;;;;;;;;;;4989815;28;20197;-74
2023/04/11 12:41:01;;;;;;;2.90;0.90;;;;;;;;;;5015173;28;20225;-73
2023/04/11 12:44:05;;;;;;;3.70;1.17;;;;;;;;;;4992346;28;20182;-74
2023/04/11 12:47:10;;;;;;;4.27;0.90;;;;;;;;;;5015149;28;20642;-73
2023/04/11 12:50:14;;;;;;;2.70;1.00;;;;;;;;;;5016261;28;20177;-73
2023/04/11 12:53:18;;;;;;;2.50;1.00;;;;;;;;;;5002907;28;20181;-74
2023/04/11 12:56:22;;;;;;;3.40;0.87;;;;;;;;;;5016087;28;20638;-73
2023/04/11 12:59:27;;;;;;;5.07;2.47;;;;;;;;;;5015868;28;20638;-74
2023/04/11 13:02:31;;;;;;;20.30;10.23;;;;;;;;;;5015883;28;20205;-73
2023/04/11 13:05:36;;;;;;;5.37;1.80;;;;;;;;;;5015946;28;20200;-74
2023/04/11 13:08:39;;;;;;;8.70;2.00;;;;;;;;;;5015500;28;20224;-74
2023/04/11 13:11:44;;;;;;;2.90;1.03;;;;;;;;;;5015356;28;20213;-74
2023/04/11 13:14:48;;;;;;;3.80;1.80;;;;;;;;;;5015646;28;20190;-74
2023/04/11 13:17:52;;;;;;;4.13;1.43;;;;;;;;;;5015258;28;20185;-74
2023/04/11 13:20:57;;;;;;;4.70;1.57;;;;;;;;;;5015295;28;20221;-74
2023/04/11 13:24:01;;;;;;;4.83;1.60;;;;;;;;;;5015175;28;20186;-74
2023/04/11 13:27:05;;;;;;;4.23;1.23;;;;;;;;;;5015198;28;20193;-73
2023/04/11 13:30:10;;;;;;;7.57;1.50;;;;;;;;;;5003078;28;20185;-73
2023/04/11 13:33:15;;;;;;;3.67;1.00;;;;;;;;;;5014941;28;20185;-73
2023/04/11 13:36:19;;;;;;;2.30;1.30;;;;;;;;;;5015006;28;20181;-74
2023/04/11 13:39:23;;;;;;;3.70;1.00;;;;;;;;;;5014907;28;20182;-74
2023/04/11 13:42:27;;;;;;;3.30;0.80;;;;;;;;;;5014672;28;20228;-74
2023/04/11 13:45:32;;;;;;;3.50;1.00;;;;;;;;;;5002766;28;20185;-74
2023/04/11 13:48:36;;;;;;;12.13;6.70;;;;;;;;;;5014751;28;20181;-74
2023/04/11 13:51:40;;;;;;;3.27;1.20;;;;;;;;;;5001709;28;20224;-74
2023/04/11 13:54:44;;;;;;;3.63;0.90;;;;;;;;;;5014824;28;20202;-74
2023/04/11 13:57:48;;;;;;;2.17;0.90;;;;;;;;;;5014507;28;20227;-74
2023/04/11 14:00:53;;;;;;;4.17;0.90;;;;;;;;;;5014554;28;20225;-74
2023/04/11 14:03:58;;;;;;;3.90;1.10;;;;;;;;;;5014591;28;20531;-74
2023/04/11 14:07:01;;;;;;;3.67;1.00;;;;;;;;;;5014648;28;20181;-73
2023/04/11 14:10:06;;;;;;;4.07;0.90;;;;;;;;;;5014627;28;20185;-74
2023/04/11 14:13:11;;;;;;;6.43;1.23;;;;;;;;;;5002683;28;20630;-73
2023/04/11 14:16:15;;;;;;;5.60;0.90;;;;;;;;;;5014515;28;20185;-73
2023/04/11 14:19:21;;;;;;;2.40;0.90;;;;;;;;;;5014265;28;20189;-73
2023/04/11 14:22:26;;;;;;;3.90;1.17;;;;;;;;;;5002099;28;20225;-74
2023/04/11 14:25:29;;;;;;;4.03;1.23;;;;;;;;;;5014328;28;20646;-73
2023/04/11 14:28:34;;;;;;;3.10;1.47;;;;;;;;;;5014097;28;20186;-73
2023/04/11 14:31:38;;;;;;;4.73;0.83;;;;;;;;;;5001939;28;20217;-73
2023/04/11 14:34:42;;;;;;;5.73;1.30;;;;;;;;;;5013880;28;20205;-73
2023/04/11 14:37:47;;;;;;;3.53;0.90;;;;;;;;;;5014076;28;20551;-74
2023/04/11 14:40:51;;;;;;;3.77;0.97;;;;;;;;;;5014148;28;20543;-73
2023/04/11 14:43:55;;;;;;;2.50;0.80;;;;;;;;;;5013938;28;20185;-74
2023/04/11 14:47:00;;;;;;;2.20;0.80;;;;;;;;;;5013440;28;20190;-74
2023/04/11 14:50:04;;;;;;;2.20;0.77;;;;;;;;;;5001848;28;20193;-74
2023/04/11 14:53:08;;;;;;;2.67;0.60;;;;;;;;;;5001463;28;20201;-74
2023/04/11 14:56:12;;;;;;;4.97;1.23;;;;;;;;;;5013806;28;20182;-74
2023/04/11 14:59:17;;;;;;;3.20;0.90;;;;;;;;;;5013744;28;20523;-74
2023/04/11 15:02:21;;;;;;;3.63;0.90;;;;;;;;;;5013451;28;20221;-73
2023/04/11 15:05:26;;;;;;;4.43;1.10;;;;;;;;;;5013329;28;20209;-73
2023/04/11 15:08:30;;;;;;;1.13;0.60;;;;;;;;;;5001315;28;20555;-74
2023/04/11 15:11:35;;;;;;;2.60;0.97;;;;;;;;;;5014044;28;20209;-73
2023/04/11 15:14:39;;;;;;;3.17;1.07;;;;;;;;;;5001372;28;20185;-74
2023/04/11 15:17:48;;;;;;;3.40;0.90;;;;;;;;;;5013597;28;20638;-74
2023/04/11 15:20:53;;;;;;;3.90;1.60;;;;;;;;;;5013366;28;20213;-74
2023/04/11 15:23:57;;;;;;;2.57;0.90;;;;;;;;;;5013572;28;20638;-73
2023/04/11 15:27:01;;;;;;;2.13;0.90;;;;;;;;;;5013568;28;20185;-73
2023/04/11 15:30:06;;;;;;;3.50;1.10;;;;;;;;;;5013501;28;20181;-73
2023/04/11 15:33:10;;;;;;;3.47;1.07;;;;;;;;;;5013410;28;20177;-74
2023/04/11 15:36:14;;;;;;;4.33;1.10;;;;;;;;;;5001037;28;20205;-73
2023/04/11 15:39:18;;;;;;;5.03;1.20;;;;;;;;;;5013087;28;20678;-73
2023/04/11 15:42:22;;;;;;;3.27;1.13;;;;;;;;;;5000968;28;20225;-74
2023/04/11 15:45:26;;;;;;;2.23;0.90;;;;;;;;;;5001052;28;20194;-73
2023/04/11 15:48:31;;;;;;;1.80;1.00;;;;;;;;;;5001190;28;20181;-73
2023/04/11 15:51:35;;;;;;;1.90;0.90;;;;;;;;;;5001096;28;20213;-74
2023/04/11 15:54:39;;;;;;;4.33;2.00;;;;;;;;;;5013045;28;20178;-74
2023/04/11 15:57:43;;;;;;;3.50;1.50;;;;;;;;;;5013067;28;20185;-74
2023/04/11 16:00:47;;;;;;;5.63;2.63;;;;;;;;;;5013092;28;20213;-74
2023/04/11 16:03:52;;;;;;;3.93;1.30;;;;;;;;;;5013034;28;20642;-74
2023/04/11 16:06:57;;;;;;;5.70;1.47;;;;;;;;;;5013160;28;20186;-74
2023/04/11 16:10:01;;;;;;;3.67;1.60;;;;;;;;;;5012881;28;20213;-74
2023/04/11 16:13:05;;;;;;;5.73;2.20;;;;;;;;;;4989579;28;20185;-74
2023/04/11 16:16:10;;;;;;;5.17;1.70;;;;;;;;;;5003754;28;20189;-74
2023/04/11 16:19:14;;;;;;;4.53;1.17;;;;;;;;;;5015883;28;20194;-74
2023/04/11 16:22:21;;;;;;;2.13;1.00;;;;;;;;;;5016511;28;20563;-74
2023/04/11 16:25:26;;;;;;;3.37;2.17;;;;;;;;;;4992968;28;20201;-73
2023/04/11 16:28:30;;;;;;;9.23;2.60;;;;;;;;;;5016207;28;20201;-74
2023/04/11 16:31:34;;;;;;;18.60;4.93;;;;;;;;;;5004370;28;20213;-74
2023/04/11 16:34:38;;;;;;;207.93;64.77;;;;;;;;;;5016282;28;20555;-74
2023/04/11 16:37:42;;;;;;;21.63;9.40;;;;;;;;;;5004257;28;20197;-74
2023/04/11 16:40:46;;;;;;;5.73;1.93;;;;;;;;;;5016284;28;20232;-74
2023/04/11 16:43:50;;;;;;;11.97;4.43;;;;;;;;;;5016028;28;20174;-73
2023/04/11 16:46:54;;;;;;;6.67;2.80;;;;;;;;;;5003886;28;20209;-73
2023/04/11 16:49:58;;;;;;;7.23;1.30;;;;;;;;;;5015823;28;20190;-73
2023/04/11 16:53:02;;;;;;;4.67;1.30;;;;;;;;;;5003652;28;20201;-74
2023/04/11 16:56:06;;;;;;;13.63;6.90;;;;;;;;;;4992353;28;20197;-74
2023/04/11 16:59:11;;;;;;;6.17;1.73;;;;;;;;;;5003548;28;20222;-74
2023/04/11 17:02:15;;;;;;;6.23;1.23;;;;;;;;;;5015542;28;20233;-75
2023/04/11 17:05:19;;;;;;;3.57;1.07;;;;;;;;;;5015526;28;20193;-73
2023/04/11 17:08:25;;;;;;;3.07;1.17;;;;;;;;;;5015413;28;20276;-73
2023/04/11 17:11:29;;;;;;;5.57;1.70;;;;;;;;;;5003393;28;20213;-73
2023/04/11 17:14:35;;;;;;;5.03;1.73;;;;;;;;;;5015632;28;20197;-73
2023/04/11 17:17:39;;;;;;;6.60;2.53;;;;;;;;;;5015587;28;20181;-74
2023/04/11 17:20:45;;;;;;;2.70;1.60;;;;;;;;;;5015245;28;20220;-76
2023/04/11 17:23:49;;;;;;;4.90;2.20;;;;;;;;;;5015339;28;20182;-73
2023/04/11 17:26:55;;;;;;;5.83;1.30;;;;;;;;;;5002247;28;20185;-73
2023/04/11 17:29:59;;;;;;;2.87;1.33;;;;;;;;;;5004072;28;20186;-74
2023/04/11 17:33:03;;;;;;;3.73;1.20;;;;;;;;;;5015018;28;20523;-74
2023/04/11 17:36:09;;;;;;;5.00;1.20;;;;;;;;;;5015296;28;20185;-75
2023/04/11 17:39:16;;;;;;;4.20;1.27;;;;;;;;;;5014972;28;20197;-73
2023/04/11 17:42:21;;;;;;;2.20;1.10;;;;;;;;;;5002726;28;20221;-76
2023/04/11 17:45:26;;;;;;;2.93;1.20;;;;;;;;;;5015098;28;20181;-76
2023/04/11 17:48:30;;;;;;;3.70;1.00;;;;;;;;;;5014729;28;20201;-76
2023/04/11 17:51:35;;;;;;;3.90;1.10;;;;;;;;;;5003120;28;20685;-75
2023/04/11 17:54:40;;;;;;;3.80;1.30;;;;;;;;;;4991252;28;20181;-75
2023/04/11 17:57:47;;;;;;;2.97;1.30;;;;;;;;;;4998376;28;20209;-76
2023/04/11 18:00:51;;;;;;;5.37;1.27;;;;;;;;;;5008974;28;20217;-73
2023/04/11 18:03:55;;;;;;;5.77;1.30;;;;;;;;;;5014032;28;20181;-75
2023/04/11 18:07:01;;;;;;;3.30;1.00;;;;;;;;;;5002234;28;20209;-73
2023/04/11 18:10:07;;;;;;;4.77;1.60;;;;;;;;;;5014343;28;20202;-74
2023/04/11 18:13:11;;;;;;;11.53;1.50;;;;;;;;;;5014446;28;20185;-75
2023/04/11 18:16:16;;;;;;;9.33;1.80;;;;;;;;;;5014788;28;20630;-73
2023/04/11 18:19:20;;;;;;;4.50;1.30;;;;;;;;;;5014539;28;20650;-74
2023/04/11 18:22:24;;;;;;;2.97;1.10;;;;;;;;;;5002097;28;20228;-76
2023/04/11 18:25:29;;;;;;;2.50;1.10;;;;;;;;;;5002693;28;20185;-73
2023/04/11 18:28:33;;;;;;;2.20;1.10;;;;;;;;;;5014099;28;20186;-72
2023/04/11 18:31:37;;;;;;;3.63;1.00;;;;;;;;;;5002087;28;20220;-73
2023/04/11 18:34:41;;;;;;;2.47;1.23;;;;;;;;;;5013339;28;20182;-74
2023/04/11 18:37:46;;;;;;;4.20;1.30;;;;;;;;;;5002263;28;20182;-73
2023/04/11 18:40:50;;;;;;;3.33;1.10;;;;;;;;;;4991064;28;20217;-73
2023/04/11 18:43:54;;;;;;;4.57;1.40;;;;;;;;;;5013863;28;20205;-73
2023/04/11 18:46:58;;;;;;;2.13;1.10;;;;;;;;;;5014434;28;20186;-73
2023/04/11 18:50:03;;;;;;;3.10;1.37;;;;;;;;;;5014012;28;20181;-73
2023/04/11 18:53:08;;;;;;;4.27;1.63;;;;;;;;;;5002077;28;20178;-72
2023/04/11 18:56:12;;;;;;;3.70;1.90;;;;;;;;;;5001956;28;20190;-75
2023/04/11 18:59:18;;;;;;;4.43;1.63;;;;;;;;;;5013677;28;20639;-74
2023/04/11 19:02:22;;;;;;;6.27;2.27;;;;;;;;;;5013600;28;20220;-74
2023/04/11 19:05:26;;;;;;;5.87;2.60;;;;;;;;;;5013814;28;20189;-74
2023/04/11 19:08:31;;;;;;;11.60;5.07;;;;;;;;;;5013430;28;20216;-74
2023/04/11 19:11:37;;;;;;;17.30;8.97;;;;;;;;;;5013228;28;20225;-74
2023/04/11 19:14:41;;;;;;;7.57;4.33;;;;;;;;;;5012792;28;20198;-74
2023/04/11 19:17:45;;;;;;;6.47;2.63;;;;;;;;;;5001246;28;20189;-74
2023/04/11 19:20:50;;;;;;;8.80;2.23;;;;;;;;;;5013439;28;20220;-74
2023/04/11 19:23:58;;;;;;;4.50;1.70;;;;;;;;;;5013186;28;20209;-75
2023/04/11 19:27:02;;;;;;;3.33;1.83;;;;;;;;;;5012349;28;20646;-74
2023/04/11 19:30:09;;;;;;;6.00;1.80;;;;;;;;;;5013346;28;20205;-74
2023/04/11 19:33:14;;;;;;;5.00;1.67;;;;;;;;;;5013319;28;20654;-75